createdAt,value
2019-02-22T00:02:06.460Z,12.53
2019-02-22T00:04:57.125Z,14.75
2019-02-22T00:07:47.325Z,13.15
2019-02-22T00:12:47.050Z,14.53
2019-02-22T00:15:17.014Z,13.85
2019-02-22T00:20:47.730Z,13.65
2019-02-22T00:23:09.962Z,13.83
2019-02-22T00:25:59.889Z,14.20
2019-02-22T00:28:49.693Z,14.30
2019-02-22T00:31:39.452Z,13.62
2019-02-22T00:34:09.821Z,13.93
2019-02-22T00:36:40.087Z,13.60
2019-02-22T00:39:10.334Z,13.65
2019-02-22T00:42:00.022Z,13.78
2019-02-22T00:44:50.672Z,14.55
2019-02-22T00:53:35.324Z,14.30
2019-02-22T00:56:25.660Z,12.18
2019-02-22T00:59:16.006Z,13.10
2019-02-22T01:02:05.848Z,13.35
2019-02-22T01:04:56.014Z,13.43
2019-02-22T01:07:27.077Z,14.87
2019-02-22T01:10:17.074Z,12.80
2019-02-22T01:12:59.302Z,14.33
2019-02-22T01:15:29.415Z,13.70
2019-02-22T01:17:59.786Z,13.58
2019-02-22T01:20:54.042Z,14.50
2019-02-22T01:23:17.019Z,15.35
2019-02-22T01:25:47.139Z,15.65
2019-02-22T01:31:11.711Z,15.15
2019-02-22T01:33:42.320Z,14.65
2019-02-22T01:36:12.599Z,15.25
2019-02-22T01:38:42.699Z,15.18
2019-02-22T01:41:32.958Z,16.05
2019-02-22T01:44:23.537Z,14.03
2019-02-22T01:46:57.159Z,15.00
2019-02-22T01:49:27.134Z,13.65
2019-02-22T01:51:57.360Z,16.17
2019-02-22T01:54:27.453Z,15.25
2019-02-22T01:56:57.587Z,14.83
2019-02-22T01:59:28.149Z,15.83
2019-02-22T02:02:18.123Z,15.25
2019-02-22T02:17:45.257Z,15.25
2019-02-22T02:20:35.852Z,14.20
2019-02-22T02:29:32.455Z,15.88
2019-02-22T02:48:48.962Z,14.75
2019-02-22T02:57:02.845Z,15.53
2019-02-22T03:10:33.134Z,15.28
2019-02-22T03:31:38.720Z,16.97
2019-02-22T03:34:28.247Z,16.25
2019-02-22T03:36:59.100Z,17.98
2019-02-22T03:39:29.587Z,16.57
2019-02-22T03:42:03.679Z,17.15
2019-02-22T03:44:40.987Z,15.65
2019-02-22T03:47:08.956Z,16.85
2019-02-22T03:52:51.860Z,17.55
2019-02-22T03:55:24.499Z,17.82
2019-02-22T04:00:46.901Z,18.45
2019-02-22T04:06:06.840Z,23.85
2019-02-22T04:08:42.272Z,20.80
2019-02-22T04:14:34.481Z,23.77
2019-02-22T04:17:24.701Z,24.60
2019-02-22T04:19:56.049Z,22.45
2019-02-22T04:22:40.271Z,22.25
2019-02-22T04:31:31.804Z,22.48
2019-02-22T04:34:20.212Z,27.13
2019-02-22T04:37:11.487Z,25.08
2019-02-22T04:43:13.048Z,24.72
2019-02-22T04:45:43.924Z,24.98
2019-02-22T04:48:14.484Z,27.00
2019-02-22T04:54:07.557Z,30.70
2019-02-22T04:56:37.987Z,26.37
2019-02-22T04:59:08.922Z,24.87
2019-02-22T05:01:50.592Z,25.57
2019-02-22T05:04:21.715Z,28.50
2019-02-22T05:07:14.814Z,29.02
2019-02-22T05:13:06.131Z,28.67
2019-02-22T05:21:34.787Z,29.17
2019-02-22T05:24:24.227Z,27.87
2019-02-22T05:27:13.661Z,28.30
2019-02-22T05:29:43.636Z,29.57
2019-02-22T05:32:33.622Z,31.80
2019-02-22T05:35:22.966Z,32.75
2019-02-22T05:37:52.953Z,29.67
2019-02-22T05:40:42.454Z,30.43
2019-02-22T05:43:31.826Z,29.20
2019-02-22T05:46:21.235Z,32.15
2019-02-22T05:48:51.284Z,30.43
2019-02-22T05:51:21.615Z,30.88
2019-02-22T05:53:51.571Z,30.70
2019-02-22T05:56:21.442Z,32.33
2019-02-22T05:59:10.959Z,31.37
2019-02-22T06:01:40.871Z,31.33
2019-02-22T06:04:10.717Z,28.55
2019-02-22T06:07:03.152Z,31.77
2019-02-22T06:13:49.326Z,32.95
2019-02-22T06:16:44.265Z,35.75
2019-02-22T06:20:12.669Z,33.75
2019-02-22T06:22:57.611Z,33.35
2019-02-22T06:29:00.101Z,30.70
2019-02-22T06:31:30.075Z,32.95
2019-02-22T06:34:00.419Z,32.05
2019-02-22T06:36:30.335Z,33.73
2019-02-22T06:39:19.978Z,32.90
2019-02-22T06:42:09.462Z,32.40
2019-02-22T06:44:40.041Z,33.00
2019-02-22T06:47:10.341Z,33.83
2019-02-22T06:49:41.313Z,34.63
2019-02-22T06:52:30.736Z,36.08
2019-02-22T06:55:00.695Z,35.40
2019-02-22T06:57:50.150Z,37.40
2019-02-22T07:00:39.643Z,37.85
2019-02-22T07:03:29.018Z,37.88
2019-02-22T07:06:18.351Z,37.67
2019-02-22T07:09:07.669Z,38.85
2019-02-22T07:14:30.177Z,39.25
2019-02-22T07:17:38.915Z,35.45
2019-02-22T07:20:28.580Z,35.20
2019-02-22T07:23:09.198Z,35.45
2019-02-22T07:25:59.224Z,34.90
2019-02-22T07:28:48.834Z,36.15
2019-02-22T07:31:38.227Z,34.73
2019-02-22T07:34:27.708Z,40.65
2019-02-22T07:37:17.263Z,36.93
2019-02-22T07:40:06.703Z,42.67
2019-02-22T07:43:07.446Z,37.58
2019-02-22T07:46:05.612Z,35.85
2019-02-22T07:48:55.070Z,36.45
2019-02-22T07:51:25.119Z,35.80
2019-02-22T07:54:14.655Z,36.08
2019-02-22T07:57:04.023Z,35.25
2019-02-22T07:59:53.464Z,36.15
2019-02-22T08:02:23.476Z,42.98
2019-02-22T08:04:53.576Z,31.87
2019-02-22T08:07:23.624Z,39.53
2019-02-22T08:09:53.707Z,34.40
2019-02-22T08:12:43.186Z,38.08
2019-02-22T08:15:13.228Z,33.00
2019-02-22T08:17:43.606Z,33.92
2019-02-22T08:20:15.790Z,33.33
2019-02-22T08:22:45.738Z,32.25
2019-02-22T08:25:35.377Z,31.87
2019-02-22T08:28:24.899Z,31.80
2019-02-22T08:30:55.057Z,34.63
2019-02-22T08:33:25.154Z,30.68
2019-02-22T08:36:14.640Z,30.40
2019-02-22T08:39:57.331Z,30.72
2019-02-22T08:42:54.477Z,28.87
2019-02-22T08:45:43.792Z,32.10
2019-02-22T08:48:34.236Z,27.95
2019-02-22T08:51:23.636Z,30.52
2019-02-22T08:54:13.201Z,27.45
2019-02-22T08:57:02.995Z,27.58
2019-02-22T08:59:33.354Z,26.35
2019-02-22T09:02:03.126Z,28.98
2019-02-22T09:04:33.225Z,27.32
2019-02-22T09:07:03.536Z,24.52
2019-02-22T09:09:33.560Z,26.75
2019-02-22T09:12:03.631Z,26.20
2019-02-22T09:14:53.421Z,27.62
2019-02-22T09:17:23.376Z,26.73
2019-02-22T09:22:47.361Z,25.27
2019-02-22T09:25:18.217Z,25.62
2019-02-22T09:27:48.086Z,26.95
2019-02-22T09:30:18.126Z,27.05
2019-02-22T09:33:07.723Z,27.70
2019-02-22T09:35:37.751Z,26.52
2019-02-22T09:38:27.517Z,25.40
2019-02-22T09:40:57.807Z,26.70
2019-02-22T09:43:54.634Z,25.62
2019-02-22T09:46:56.805Z,23.22
2019-02-22T09:49:47.076Z,24.82
2019-02-22T09:52:36.474Z,21.40
2019-02-22T09:55:11.232Z,27.27
2019-02-22T09:57:41.440Z,22.90
2019-02-22T10:00:11.875Z,22.27
2019-02-22T10:02:44.560Z,21.87
2019-02-22T10:05:13.857Z,25.23
2019-02-22T10:07:43.888Z,21.95
2019-02-22T10:10:33.401Z,21.87
2019-02-22T10:13:16.675Z,17.17
2019-02-22T10:15:46.742Z,22.17
2019-02-22T10:19:25.136Z,20.50
2019-02-22T10:22:16.213Z,20.45
2019-02-22T10:29:52.673Z,22.32
2019-02-22T10:32:50.131Z,22.58
2019-02-22T10:36:31.014Z,24.70
2019-02-22T10:39:38.712Z,21.10
2019-02-22T10:46:05.188Z,19.45
2019-02-22T10:52:35.842Z,17.35
2019-02-22T10:55:06.110Z,11.57
2019-02-22T10:57:46.571Z,13.85
2019-02-22T11:00:36.355Z,14.40
2019-02-22T11:03:25.845Z,14.00
2019-02-22T11:06:15.191Z,15.75
2019-02-22T11:12:41.213Z,10.35
2019-02-22T11:15:30.640Z,12.40
2019-02-22T11:18:19.979Z,12.45
2019-02-22T11:21:09.485Z,11.65
2019-02-22T11:23:39.905Z,13.80
2019-02-22T11:26:11.138Z,10.13
2019-02-22T11:31:50.393Z,13.45
2019-02-22T11:34:20.758Z,14.30
2019-02-22T11:36:50.733Z,12.85
2019-02-22T11:39:42.186Z,11.43
2019-02-22T11:42:13.852Z,13.95
2019-02-22T11:56:17.183Z,6.37
2019-02-22T11:59:07.999Z,8.08
2019-02-22T12:01:53.590Z,9.10
2019-02-22T12:11:36.502Z,7.78
2019-02-22T12:14:10.027Z,5.87
2019-02-22T12:16:40.551Z,6.87
2019-02-22T12:28:29.999Z,7.53
2019-02-22T12:31:42.592Z,7.42
2019-02-22T12:46:20.086Z,10.25
2019-02-22T12:52:04.393Z,8.73
2019-02-22T12:54:34.479Z,8.73
2019-02-22T12:57:25.809Z,9.23
2019-02-22T12:59:55.763Z,8.18
2019-02-22T13:02:25.890Z,7.90
2019-02-22T13:05:17.787Z,8.95
2019-02-22T13:08:10.779Z,8.90
2019-02-22T13:11:13.152Z,9.40
2019-02-22T13:14:02.955Z,10.80
2019-02-22T13:16:52.763Z,9.03
2019-02-22T13:19:28.872Z,8.70
2019-02-22T13:22:03.452Z,8.50
2019-02-22T13:27:30.980Z,5.70
2019-02-22T13:30:02.335Z,6.58
2019-02-22T13:32:42.720Z,5.20
2019-02-22T13:35:07.184Z,5.50
2019-02-22T13:37:37.899Z,5.97
2019-02-22T13:40:11.049Z,6.10
2019-02-22T13:42:44.641Z,5.65
2019-02-22T13:45:33.406Z,5.15
2019-02-22T13:48:05.921Z,3.10
2019-02-22T13:50:40.543Z,5.35
2019-02-22T13:53:10.923Z,6.30
2019-02-22T13:55:42.851Z,5.15
2019-02-22T13:58:13.263Z,5.00
2019-02-22T14:00:43.407Z,6.25
2019-02-22T14:03:14.628Z,7.17
2019-02-22T14:05:46.166Z,6.37
2019-02-22T14:08:22.639Z,6.10
2019-02-22T14:10:59.654Z,6.70
2019-02-22T14:14:12.425Z,5.80
2019-02-22T14:16:22.350Z,6.47
2019-02-22T14:18:55.737Z,6.37
2019-02-22T14:21:26.325Z,6.40
2019-02-22T14:24:16.101Z,7.15
2019-02-22T14:27:08.548Z,6.75
2019-02-22T14:36:57.207Z,6.58
2019-02-22T14:40:00.099Z,6.85
2019-02-22T14:42:40.110Z,6.80
2019-02-22T14:45:30.062Z,6.20
2019-02-22T14:48:19.795Z,7.37
2019-02-22T14:50:51.236Z,7.08
2019-02-22T14:53:22.142Z,6.25
2019-02-22T14:59:46.642Z,6.92
2019-02-22T15:02:16.887Z,6.65
2019-02-22T15:08:13.796Z,6.10
2019-02-22T15:20:13.011Z,5.33
2019-02-22T15:23:03.222Z,6.30
2019-02-22T15:28:26.311Z,5.33
2019-02-22T15:34:06.875Z,5.62
2019-02-22T15:36:37.463Z,5.90
2019-02-22T15:39:07.525Z,6.25
2019-02-22T15:47:48.791Z,5.78
2019-02-22T15:50:38.562Z,5.55
2019-02-22T15:53:30.231Z,5.28
2019-02-22T15:56:02.196Z,5.65
2019-02-22T15:58:52.308Z,4.65
2019-02-22T16:01:23.570Z,5.60
2019-02-22T16:04:16.651Z,4.97
2019-02-22T16:07:06.906Z,5.28
2019-02-22T16:49:54.786Z,5.00
2019-02-22T16:56:02.092Z,4.95
2019-02-22T16:59:15.552Z,4.90
2019-02-22T17:02:25.891Z,4.90
2019-02-22T17:05:13.821Z,4.50
2019-02-22T17:07:52.703Z,5.70
2019-02-22T17:11:04.161Z,5.35
2019-02-22T17:14:03.035Z,4.55
2019-02-22T17:16:24.736Z,4.37
2019-02-22T17:28:33.197Z,4.80
2019-02-22T17:33:56.499Z,5.28
2019-02-22T17:36:48.612Z,4.90
2019-02-22T17:45:48.756Z,5.00
2019-02-22T18:05:57.661Z,5.20
2019-02-22T18:08:55.314Z,5.15
2019-02-22T18:11:44.961Z,5.55
2019-02-22T18:14:35.019Z,5.75
2019-02-22T18:17:25.712Z,5.55
2019-02-22T18:19:56.059Z,6.35
2019-02-22T18:22:36.748Z,7.45
2019-02-22T18:25:07.265Z,6.25
2019-02-22T18:27:58.621Z,6.87
2019-02-22T18:30:28.983Z,6.28
2019-02-22T18:33:18.401Z,6.08
2019-02-22T18:35:48.744Z,5.80
2019-02-22T18:38:18.962Z,5.62
2019-02-22T18:40:48.968Z,6.03
2019-02-22T18:43:19.351Z,6.45
2019-02-22T18:45:49.608Z,5.95
2019-02-22T18:48:39.273Z,6.67
2019-02-22T18:54:30.380Z,7.42
2019-02-22T18:57:00.467Z,8.45
2019-02-22T18:59:50.305Z,7.95
2019-02-22T19:02:39.842Z,7.53
2019-02-22T19:08:04.418Z,5.65
2019-02-22T19:10:54.792Z,6.10
2019-02-22T19:13:28.044Z,5.72
2019-02-22T19:19:26.427Z,5.00
2019-02-22T19:21:56.717Z,5.58
2019-02-22T19:24:46.272Z,6.22
2019-02-22T19:27:28.707Z,6.37
2019-02-22T19:29:59.263Z,7.08
2019-02-22T19:32:30.835Z,6.28
2019-02-22T19:35:21.196Z,6.78
2019-02-22T19:38:11.433Z,6.87
2019-02-22T19:41:01.140Z,6.20
2019-02-22T19:43:31.873Z,6.45
2019-02-22T19:46:02.661Z,6.28
2019-02-22T19:48:33.190Z,6.78
2019-02-22T19:51:47.232Z,5.65
2019-02-22T19:54:18.793Z,6.55
2019-02-22T19:56:49.169Z,6.55
2019-02-22T19:59:22.418Z,6.83
2019-02-22T20:02:16.141Z,6.30
2019-02-22T20:04:48.744Z,6.53
2019-02-22T20:07:21.377Z,6.78
2019-02-22T20:13:27.666Z,6.95
2019-02-22T20:16:00.844Z,7.87
2019-02-22T20:18:44.565Z,7.15
2019-02-22T20:21:14.876Z,6.70
2019-02-22T20:26:30.496Z,6.20
2019-02-22T20:29:00.676Z,6.90
2019-02-22T20:34:31.294Z,6.33
2019-02-22T20:37:02.026Z,6.95
2019-02-22T20:39:33.820Z,6.95
2019-02-22T20:42:03.951Z,7.47
2019-02-22T20:44:36.895Z,6.80
2019-02-22T20:47:48.429Z,6.90
2019-02-22T20:50:25.958Z,7.08
2019-02-22T20:56:03.858Z,5.62
2019-02-22T20:58:33.927Z,7.30
2019-02-22T21:01:14.227Z,5.83
2019-02-22T21:03:55.028Z,7.28
2019-02-22T21:06:28.216Z,7.37
2019-02-22T21:08:58.159Z,7.78
2019-02-22T21:11:30.848Z,7.55
2019-02-22T21:17:22.582Z,7.45
2019-02-22T21:19:52.888Z,7.47
2019-02-22T21:22:23.027Z,6.20
2019-02-22T21:24:53.195Z,6.62
2019-02-22T21:27:23.417Z,6.80
2019-02-22T21:29:54.224Z,8.53
2019-02-22T21:32:24.448Z,7.05
2019-02-22T21:35:14.203Z,6.85
2019-02-22T21:37:44.461Z,7.55
2019-02-22T21:40:14.406Z,8.20
2019-02-22T21:42:44.916Z,8.63
2019-02-22T21:45:34.781Z,7.33
2019-02-22T21:48:27.735Z,7.42
2019-02-22T21:51:15.459Z,7.00
2019-02-22T21:53:46.149Z,7.37
2019-02-22T21:56:16.402Z,6.87
2019-02-22T21:58:48.870Z,7.40
2019-02-22T22:01:39.015Z,7.00
2019-02-22T22:04:08.984Z,7.85
2019-02-22T22:09:54.634Z,8.13
2019-02-22T22:13:05.302Z,8.00
2019-02-22T22:15:54.975Z,9.03
2019-02-22T22:18:44.636Z,8.40
2019-02-22T22:21:34.052Z,8.35
2019-02-22T22:24:04.172Z,7.83
2019-02-22T22:43:45.411Z,9.20
2019-02-22T22:46:58.039Z,9.05
2019-02-22T22:49:28.785Z,9.03
2019-02-22T22:57:41.341Z,9.38
2019-02-22T23:03:49.972Z,10.08
2019-02-22T23:08:54.220Z,9.38
2019-02-22T23:17:01.023Z,9.70
2019-02-22T23:19:31.250Z,8.95
2019-02-22T23:22:01.374Z,9.03
2019-02-22T23:24:51.164Z,9.65
2019-02-22T23:27:21.238Z,8.23
2019-02-22T23:29:51.253Z,7.90
2019-02-22T23:32:21.144Z,8.58
2019-02-22T23:35:10.508Z,8.75
2019-02-22T23:38:00.105Z,8.43
2019-02-22T23:40:49.796Z,8.00
2019-02-22T23:43:42.169Z,9.20
2019-02-22T23:46:12.193Z,9.13
2019-02-22T23:48:42.664Z,9.38
2019-02-22T23:51:12.601Z,10.15
2019-02-22T23:53:42.640Z,9.88
2019-02-22T23:56:12.537Z,9.35
2019-02-22T23:58:42.523Z,7.90
